sensor_id;sensor_type;location;lat;lon;timestamp;P1;durP1;ratioP1;P2;durP2;ratioP2
43706;SDS011;61348;53.392;-6.248;2023-06-14T00:00:15;9.27;;;7.80;;
43706;SDS011;61348;53.392;-6.248;2023-06-14T00:02:43;11.50;;;7.50;;
43706;SDS011;61348;53.392;-6.248;2023-06-14T00:05:10;10.60;;;7.43;;
43706;SDS011;61348;53.392;-6.248;2023-06-14T00:07:39;14.25;;;7.88;;
43706;SDS011;61348;53.392;-6.248;2023-06-14T00:10:11;9.25;;;7.30;;
43706;SDS011;61348;53.392;-6.248;2023-06-14T00:12:42;11.05;;;8.45;;
43706;SDS011;61348;53.392;-6.248;2023-06-14T00:15:09;12.70;;;8.20;;
43706;SDS011;61348;53.392;-6.248;2023-06-14T00:17:36;10.45;;;8.13;;
43706;SDS011;61348;53.392;-6.248;2023-06-14T00:20:05;11.88;;;7.65;;
43706;SDS011;61348;53.392;-6.248;2023-06-14T00:22:33;9.65;;;7.90;;
43706;SDS011;61348;53.392;-6.248;2023-06-14T00:25:00;11.23;;;7.35;;
43706;SDS011;61348;53.392;-6.248;2023-06-14T00:27:40;9.75;;;8.00;;
43706;SDS011;61348;53.392;-6.248;2023-06-14T00:30:07;10.75;;;7.45;;
43706;SDS011;61348;53.392;-6.248;2023-06-14T00:32:34;10.18;;;7.88;;
43706;SDS011;61348;53.392;-6.248;2023-06-14T00:35:01;8.98;;;7.82;;
43706;SDS011;61348;53.392;-6.248;2023-06-14T00:37:28;13.90;;;8.68;;
43706;SDS011;61348;53.392;-6.248;2023-06-14T00:39:55;13.25;;;8.27;;
43706;SDS011;61348;53.392;-6.248;2023-06-14T00:42:23;11.43;;;8.38;;
43706;SDS011;61348;53.392;-6.248;2023-06-14T00:44:52;11.73;;;8.48;;
43706;SDS011;61348;53.392;-6.248;2023-06-14T00:47:21;10.48;;;7.38;;
43706;SDS011;61348;53.392;-6.248;2023-06-14T00:49:49;10.95;;;8.20;;
43706;SDS011;61348;53.392;-6.248;2023-06-14T00:52:17;12.95;;;8.65;;
43706;SDS011;61348;53.392;-6.248;2023-06-14T00:54:45;11.30;;;8.30;;
43706;SDS011;61348;53.392;-6.248;2023-06-14T00:57:13;11.90;;;8.30;;
43706;SDS011;61348;53.392;-6.248;2023-06-14T00:59:44;9.35;;;8.45;;
43706;SDS011;61348;53.392;-6.248;2023-06-14T01:02:12;11.05;;;9.02;;
43706;SDS011;61348;53.392;-6.248;2023-06-14T01:04:44;14.23;;;8.52;;
43706;SDS011;61348;53.392;-6.248;2023-06-14T01:12:51;11.98;;;8.48;;
43706;SDS011;61348;53.392;-6.248;2023-06-14T01:15:20;11.68;;;8.32;;
43706;SDS011;61348;53.392;-6.248;2023-06-14T01:17:48;12.43;;;9.05;;
43706;SDS011;61348;53.392;-6.248;2023-06-14T01:20:19;11.40;;;9.27;;
43706;SDS011;61348;53.392;-6.248;2023-06-14T01:22:52;11.95;;;8.90;;
43706;SDS011;61348;53.392;-6.248;2023-06-14T01:25:20;16.58;;;9.43;;
43706;SDS011;61348;53.392;-6.248;2023-06-14T01:27:53;12.85;;;9.35;;
43706;SDS011;61348;53.392;-6.248;2023-06-14T01:30:24;13.82;;;9.60;;
43706;SDS011;61348;53.392;-6.248;2023-06-14T01:32:53;11.60;;;9.35;;
43706;SDS011;61348;53.392;-6.248;2023-06-14T01:35:21;13.15;;;8.65;;
43706;SDS011;61348;53.392;-6.248;2023-06-14T01:37:49;11.63;;;8.90;;
43706;SDS011;61348;53.392;-6.248;2023-06-14T01:40:17;16.67;;;9.73;;
43706;SDS011;61348;53.392;-6.248;2023-06-14T01:42:46;12.82;;;9.10;;
43706;SDS011;61348;53.392;-6.248;2023-06-14T01:45:16;12.10;;;9.67;;
43706;SDS011;61348;53.392;-6.248;2023-06-14T01:47:44;13.30;;;9.90;;
43706;SDS011;61348;53.392;-6.248;2023-06-14T01:50:12;17.65;;;9.32;;
43706;SDS011;61348;53.392;-6.248;2023-06-14T01:52:40;11.57;;;8.45;;
43706;SDS011;61348;53.392;-6.248;2023-06-14T01:55:07;13.95;;;8.93;;
43706;SDS011;61348;53.392;-6.248;2023-06-14T01:57:34;12.07;;;8.45;;
43706;SDS011;61348;53.392;-6.248;2023-06-14T02:00:01;11.85;;;8.75;;
43706;SDS011;61348;53.392;-6.248;2023-06-14T02:02:30;15.48;;;9.27;;
43706;SDS011;61348;53.392;-6.248;2023-06-14T02:04:56;10.57;;;8.52;;
43706;SDS011;61348;53.392;-6.248;2023-06-14T02:07:23;12.38;;;9.30;;
43706;SDS011;61348;53.392;-6.248;2023-06-14T02:09:51;9.82;;;8.82;;
43706;SDS011;61348;53.392;-6.248;2023-06-14T02:12:18;15.77;;;9.18;;
43706;SDS011;61348;53.392;-6.248;2023-06-14T02:14:44;14.73;;;9.65;;
43706;SDS011;61348;53.392;-6.248;2023-06-14T02:17:11;12.65;;;7.60;;
43706;SDS011;61348;53.392;-6.248;2023-06-14T02:19:38;12.77;;;7.88;;
43706;SDS011;61348;53.392;-6.248;2023-06-14T02:22:05;11.90;;;9.63;;
43706;SDS011;61348;53.392;-6.248;2023-06-14T02:24:32;10.02;;;8.75;;
43706;SDS011;61348;53.392;-6.248;2023-06-14T02:26:59;9.80;;;7.93;;
43706;SDS011;61348;53.392;-6.248;2023-06-14T02:29:26;11.48;;;7.40;;
43706;SDS011;61348;53.392;-6.248;2023-06-14T02:31:53;12.75;;;9.20;;
43706;SDS011;61348;53.392;-6.248;2023-06-14T02:34:20;10.50;;;7.82;;
43706;SDS011;61348;53.392;-6.248;2023-06-14T02:36:48;10.25;;;7.38;;
43706;SDS011;61348;53.392;-6.248;2023-06-14T02:39:15;7.00;;;6.03;;
43706;SDS011;61348;53.392;-6.248;2023-06-14T02:41:41;8.15;;;6.85;;
43706;SDS011;61348;53.392;-6.248;2023-06-14T02:44:09;15.50;;;7.68;;
43706;SDS011;61348;53.392;-6.248;2023-06-14T02:46:38;7.25;;;5.75;;
43706;SDS011;61348;53.392;-6.248;2023-06-14T02:49:05;7.68;;;6.00;;
43706;SDS011;61348;53.392;-6.248;2023-06-14T02:51:32;8.85;;;7.03;;
43706;SDS011;61348;53.392;-6.248;2023-06-14T02:53:58;7.75;;;6.47;;
43706;SDS011;61348;53.392;-6.248;2023-06-14T02:56:25;9.52;;;6.25;;
43706;SDS011;61348;53.392;-6.248;2023-06-14T02:58:52;6.78;;;6.07;;
43706;SDS011;61348;53.392;-6.248;2023-06-14T03:01:19;6.90;;;6.05;;
43706;SDS011;61348;53.392;-6.248;2023-06-14T03:03:47;8.68;;;6.15;;
43706;SDS011;61348;53.392;-6.248;2023-06-14T03:06:14;8.35;;;6.78;;
43706;SDS011;61348;53.392;-6.248;2023-06-14T03:08:43;11.25;;;6.50;;
43706;SDS011;61348;53.392;-6.248;2023-06-14T03:11:10;6.53;;;5.20;;
43706;SDS011;61348;53.392;-6.248;2023-06-14T03:13:38;6.63;;;5.68;;
43706;SDS011;61348;53.392;-6.248;2023-06-14T03:16:07;9.15;;;5.95;;
43706;SDS011;61348;53.392;-6.248;2023-06-14T03:18:35;8.48;;;6.28;;
43706;SDS011;61348;53.392;-6.248;2023-06-14T03:21:03;9.30;;;6.30;;
43706;SDS011;61348;53.392;-6.248;2023-06-14T03:23:31;8.70;;;6.68;;
43706;SDS011;61348;53.392;-6.248;2023-06-14T03:25:58;10.82;;;6.97;;
43706;SDS011;61348;53.392;-6.248;2023-06-14T03:28:25;16.85;;;7.68;;
43706;SDS011;61348;53.392;-6.248;2023-06-14T03:30:52;7.60;;;6.80;;
43706;SDS011;61348;53.392;-6.248;2023-06-14T03:33:19;9.13;;;7.25;;
43706;SDS011;61348;53.392;-6.248;2023-06-14T03:35:47;10.13;;;7.90;;
43706;SDS011;61348;53.392;-6.248;2023-06-14T03:38:14;9.52;;;7.25;;
43706;SDS011;61348;53.392;-6.248;2023-06-14T03:40:41;13.00;;;7.40;;
43706;SDS011;61348;53.392;-6.248;2023-06-14T03:43:08;9.85;;;7.43;;
43706;SDS011;61348;53.392;-6.248;2023-06-14T03:45:35;9.10;;;6.93;;
43706;SDS011;61348;53.392;-6.248;2023-06-14T03:48:02;8.40;;;6.43;;
43706;SDS011;61348;53.392;-6.248;2023-06-14T03:50:29;8.07;;;6.68;;
43706;SDS011;61348;53.392;-6.248;2023-06-14T03:52:56;10.07;;;6.15;;
43706;SDS011;61348;53.392;-6.248;2023-06-14T03:55:23;7.15;;;5.95;;
43706;SDS011;61348;53.392;-6.248;2023-06-14T03:57:54;9.95;;;6.03;;
43706;SDS011;61348;53.392;-6.248;2023-06-14T04:00:21;7.75;;;5.85;;
43706;SDS011;61348;53.392;-6.248;2023-06-14T04:02:48;7.72;;;6.28;;
43706;SDS011;61348;53.392;-6.248;2023-06-14T04:05:15;7.95;;;5.95;;
43706;SDS011;61348;53.392;-6.248;2023-06-14T04:07:43;9.68;;;6.43;;
43706;SDS011;61348;53.392;-6.248;2023-06-14T04:10:12;8.40;;;6.05;;
43706;SDS011;61348;53.392;-6.248;2023-06-14T04:12:39;11.25;;;7.05;;
43706;SDS011;61348;53.392;-6.248;2023-06-14T04:15:09;8.85;;;6.63;;
43706;SDS011;61348;53.392;-6.248;2023-06-14T04:17:47;9.50;;;5.97;;
43706;SDS011;61348;53.392;-6.248;2023-06-14T04:20:14;8.60;;;5.68;;
43706;SDS011;61348;53.392;-6.248;2023-06-14T04:22:41;7.40;;;5.82;;
43706;SDS011;61348;53.392;-6.248;2023-06-14T04:25:09;9.95;;;6.32;;
43706;SDS011;61348;53.392;-6.248;2023-06-14T04:27:37;6.30;;;5.47;;
43706;SDS011;61348;53.392;-6.248;2023-06-14T04:30:04;11.30;;;5.88;;
43706;SDS011;61348;53.392;-6.248;2023-06-14T04:32:32;7.00;;;5.18;;
43706;SDS011;61348;53.392;-6.248;2023-06-14T04:35:00;8.27;;;5.32;;
43706;SDS011;61348;53.392;-6.248;2023-06-14T04:37:30;9.70;;;5.25;;
43706;SDS011;61348;53.392;-6.248;2023-06-14T04:39:57;8.60;;;5.30;;
43706;SDS011;61348;53.392;-6.248;2023-06-14T04:42:24;5.65;;;4.90;;
43706;SDS011;61348;53.392;-6.248;2023-06-14T04:47:23;7.22;;;5.05;;
43706;SDS011;61348;53.392;-6.248;2023-06-14T04:49:56;8.45;;;5.68;;
43706;SDS011;61348;53.392;-6.248;2023-06-14T04:52:24;7.03;;;5.53;;
43706;SDS011;61348;53.392;-6.248;2023-06-14T04:54:52;8.13;;;5.10;;
43706;SDS011;61348;53.392;-6.248;2023-06-14T04:57:21;9.48;;;6.43;;
43706;SDS011;61348;53.392;-6.248;2023-06-14T04:59:48;6.93;;;5.13;;
43706;SDS011;61348;53.392;-6.248;2023-06-14T05:02:24;7.25;;;5.38;;
43706;SDS011;61348;53.392;-6.248;2023-06-14T05:04:52;7.60;;;5.07;;
43706;SDS011;61348;53.392;-6.248;2023-06-14T05:07:19;7.93;;;5.28;;
43706;SDS011;61348;53.392;-6.248;2023-06-14T05:09:46;7.60;;;5.68;;
43706;SDS011;61348;53.392;-6.248;2023-06-14T05:12:13;8.18;;;6.22;;
43706;SDS011;61348;53.392;-6.248;2023-06-14T05:14:40;8.45;;;6.38;;
43706;SDS011;61348;53.392;-6.248;2023-06-14T05:17:08;6.68;;;5.25;;
43706;SDS011;61348;53.392;-6.248;2023-06-14T05:19:35;8.40;;;5.32;;
43706;SDS011;61348;53.392;-6.248;2023-06-14T05:22:02;6.93;;;5.18;;
43706;SDS011;61348;53.392;-6.248;2023-06-14T05:24:29;10.75;;;6.00;;
43706;SDS011;61348;53.392;-6.248;2023-06-14T05:26:57;10.02;;;6.20;;
43706;SDS011;61348;53.392;-6.248;2023-06-14T05:29:24;9.85;;;6.00;;
43706;SDS011;61348;53.392;-6.248;2023-06-14T05:31:54;8.50;;;6.15;;
43706;SDS011;61348;53.392;-6.248;2023-06-14T05:34:21;6.72;;;5.57;;
43706;SDS011;61348;53.392;-6.248;2023-06-14T05:36:47;14.10;;;6.68;;
43706;SDS011;61348;53.392;-6.248;2023-06-14T05:39:14;6.60;;;4.95;;
43706;SDS011;61348;53.392;-6.248;2023-06-14T05:41:41;9.48;;;5.68;;
43706;SDS011;61348;53.392;-6.248;2023-06-14T05:44:08;10.13;;;4.65;;
43706;SDS011;61348;53.392;-6.248;2023-06-14T05:46:35;6.07;;;4.97;;
43706;SDS011;61348;53.392;-6.248;2023-06-14T05:49:02;8.88;;;4.63;;
43706;SDS011;61348;53.392;-6.248;2023-06-14T05:51:28;7.65;;;4.20;;
43706;SDS011;61348;53.392;-6.248;2023-06-14T05:53:56;7.53;;;4.72;;
43706;SDS011;61348;53.392;-6.248;2023-06-14T05:56:23;11.35;;;4.78;;
43706;SDS011;61348;53.392;-6.248;2023-06-14T05:58:50;7.05;;;4.10;;
43706;SDS011;61348;53.392;-6.248;2023-06-14T06:01:17;9.07;;;4.97;;
43706;SDS011;61348;53.392;-6.248;2023-06-14T06:03:44;5.80;;;4.03;;
43706;SDS011;61348;53.392;-6.248;2023-06-14T06:06:14;7.13;;;4.47;;
43706;SDS011;61348;53.392;-6.248;2023-06-14T06:08:42;9.40;;;4.45;;
43706;SDS011;61348;53.392;-6.248;2023-06-14T06:11:09;7.20;;;4.72;;
43706;SDS011;61348;53.392;-6.248;2023-06-14T06:13:37;6.45;;;4.50;;
43706;SDS011;61348;53.392;-6.248;2023-06-14T06:16:05;5.95;;;3.88;;
43706;SDS011;61348;53.392;-6.248;2023-06-14T06:18:32;8.40;;;4.40;;
43706;SDS011;61348;53.392;-6.248;2023-06-14T06:20:59;5.93;;;3.38;;
43706;SDS011;61348;53.392;-6.248;2023-06-14T06:23:26;8.27;;;4.57;;
43706;SDS011;61348;53.392;-6.248;2023-06-14T06:25:53;9.07;;;4.95;;
43706;SDS011;61348;53.392;-6.248;2023-06-14T06:28:20;7.28;;;4.25;;
43706;SDS011;61348;53.392;-6.248;2023-06-14T06:30:46;6.93;;;3.72;;
43706;SDS011;61348;53.392;-6.248;2023-06-14T06:33:13;7.80;;;4.43;;
43706;SDS011;61348;53.392;-6.248;2023-06-14T06:35:40;5.10;;;3.17;;
43706;SDS011;61348;53.392;-6.248;2023-06-14T06:38:07;4.82;;;3.85;;
43706;SDS011;61348;53.392;-6.248;2023-06-14T06:40:36;5.07;;;3.55;;
43706;SDS011;61348;53.392;-6.248;2023-06-14T06:43:03;5.47;;;4.07;;
43706;SDS011;61348;53.392;-6.248;2023-06-14T06:45:30;8.27;;;4.30;;
43706;SDS011;61348;53.392;-6.248;2023-06-14T06:47:58;4.45;;;2.83;;
43706;SDS011;61348;53.392;-6.248;2023-06-14T06:50:25;5.55;;;3.65;;
43706;SDS011;61348;53.392;-6.248;2023-06-14T06:52:52;4.82;;;3.30;;
43706;SDS011;61348;53.392;-6.248;2023-06-14T06:55:20;4.03;;;3.15;;
43706;SDS011;61348;53.392;-6.248;2023-06-14T06:57:46;5.05;;;2.90;;
43706;SDS011;61348;53.392;-6.248;2023-06-14T07:00:13;4.88;;;3.03;;
43706;SDS011;61348;53.392;-6.248;2023-06-14T07:02:41;5.43;;;3.88;;
43706;SDS011;61348;53.392;-6.248;2023-06-14T07:05:08;8.25;;;3.45;;
43706;SDS011;61348;53.392;-6.248;2023-06-14T07:07:35;4.68;;;3.10;;
43706;SDS011;61348;53.392;-6.248;2023-06-14T07:10:02;5.15;;;2.88;;
43706;SDS011;61348;53.392;-6.248;2023-06-14T07:12:31;3.95;;;2.88;;
43706;SDS011;61348;53.392;-6.248;2023-06-14T07:15:00;5.22;;;3.35;;
43706;SDS011;61348;53.392;-6.248;2023-06-14T07:17:27;7.60;;;3.88;;
43706;SDS011;61348;53.392;-6.248;2023-06-14T07:19:55;5.30;;;3.63;;
43706;SDS011;61348;53.392;-6.248;2023-06-14T07:22:22;8.25;;;3.97;;
43706;SDS011;61348;53.392;-6.248;2023-06-14T07:24:49;7.47;;;2.90;;
43706;SDS011;61348;53.392;-6.248;2023-06-14T07:27:16;7.70;;;3.38;;
43706;SDS011;61348;53.392;-6.248;2023-06-14T07:29:45;8.13;;;3.65;;
43706;SDS011;61348;53.392;-6.248;2023-06-14T07:32:12;7.47;;;3.08;;
43706;SDS011;61348;53.392;-6.248;2023-06-14T07:34:39;9.18;;;4.75;;
43706;SDS011;61348;53.392;-6.248;2023-06-14T07:37:06;3.55;;;2.80;;
43706;SDS011;61348;53.392;-6.248;2023-06-14T07:39:33;4.32;;;3.10;;
43706;SDS011;61348;53.392;-6.248;2023-06-14T07:42:00;5.95;;;3.10;;
43706;SDS011;61348;53.392;-6.248;2023-06-14T07:44:29;8.43;;;3.42;;
43706;SDS011;61348;53.392;-6.248;2023-06-14T07:46:57;5.57;;;3.10;;
43706;SDS011;61348;53.392;-6.248;2023-06-14T07:49:27;5.60;;;3.22;;
43706;SDS011;61348;53.392;-6.248;2023-06-14T07:51:54;4.32;;;3.03;;
43706;SDS011;61348;53.392;-6.248;2023-06-14T07:54:21;2.97;;;2.72;;
43706;SDS011;61348;53.392;-6.248;2023-06-14T07:56:52;4.47;;;3.10;;
43706;SDS011;61348;53.392;-6.248;2023-06-14T07:59:19;5.03;;;3.75;;
43706;SDS011;61348;53.392;-6.248;2023-06-14T08:01:46;7.25;;;3.78;;
43706;SDS011;61348;53.392;-6.248;2023-06-14T08:04:14;4.25;;;3.47;;
43706;SDS011;61348;53.392;-6.248;2023-06-14T08:06:41;5.93;;;3.47;;
43706;SDS011;61348;53.392;-6.248;2023-06-14T08:09:12;3.33;;;2.88;;
43706;SDS011;61348;53.392;-6.248;2023-06-14T08:11:39;5.60;;;3.20;;
43706;SDS011;61348;53.392;-6.248;2023-06-14T08:14:06;4.30;;;2.90;;
43706;SDS011;61348;53.392;-6.248;2023-06-14T08:16:33;3.80;;;2.92;;
43706;SDS011;61348;53.392;-6.248;2023-06-14T08:19:00;4.47;;;3.10;;
43706;SDS011;61348;53.392;-6.248;2023-06-14T08:21:27;3.50;;;2.97;;
43706;SDS011;61348;53.392;-6.248;2023-06-14T08:23:57;3.40;;;3.10;;
43706;SDS011;61348;53.392;-6.248;2023-06-14T08:26:24;3.95;;;2.60;;
43706;SDS011;61348;53.392;-6.248;2023-06-14T08:28:55;4.80;;;2.47;;
43706;SDS011;61348;53.392;-6.248;2023-06-14T08:31:22;4.72;;;2.60;;
43706;SDS011;61348;53.392;-6.248;2023-06-14T08:33:50;3.78;;;2.30;;
43706;SDS011;61348;53.392;-6.248;2023-06-14T08:36:17;4.97;;;2.95;;
43706;SDS011;61348;53.392;-6.248;2023-06-14T08:38:44;5.07;;;2.85;;
43706;SDS011;61348;53.392;-6.248;2023-06-14T08:41:11;3.33;;;2.80;;
43706;SDS011;61348;53.392;-6.248;2023-06-14T08:43:40;3.25;;;2.40;;
43706;SDS011;61348;53.392;-6.248;2023-06-14T08:46:07;4.72;;;2.90;;
43706;SDS011;61348;53.392;-6.248;2023-06-14T08:48:36;3.08;;;2.20;;
43706;SDS011;61348;53.392;-6.248;2023-06-14T08:51:04;3.00;;;2.33;;
43706;SDS011;61348;53.392;-6.248;2023-06-14T08:53:32;3.38;;;1.83;;
43706;SDS011;61348;53.392;-6.248;2023-06-14T08:56:04;3.08;;;2.25;;
43706;SDS011;61348;53.392;-6.248;2023-06-14T08:58:32;3.55;;;2.65;;
43706;SDS011;61348;53.392;-6.248;2023-06-14T09:01:03;3.97;;;2.28;;
43706;SDS011;61348;53.392;-6.248;2023-06-14T09:05:59;2.47;;;2.05;;
43706;SDS011;61348;53.392;-6.248;2023-06-14T09:08:27;2.60;;;2.10;;
43706;SDS011;61348;53.392;-6.248;2023-06-14T09:10:57;5.68;;;2.33;;
43706;SDS011;61348;53.392;-6.248;2023-06-14T09:13:26;6.30;;;2.42;;
43706;SDS011;61348;53.392;-6.248;2023-06-14T09:15:57;4.22;;;2.47;;
43706;SDS011;61348;53.392;-6.248;2023-06-14T09:18:33;2.40;;;2.20;;
43706;SDS011;61348;53.392;-6.248;2023-06-14T09:21:06;3.42;;;1.83;;
43706;SDS011;61348;53.392;-6.248;2023-06-14T09:23:37;3.10;;;1.90;;
43706;SDS011;61348;53.392;-6.248;2023-06-14T09:26:09;3.28;;;2.47;;
43706;SDS011;61348;53.392;-6.248;2023-06-14T09:28:47;3.00;;;2.00;;
43706;SDS011;61348;53.392;-6.248;2023-06-14T09:31:18;4.40;;;2.58;;
43706;SDS011;61348;53.392;-6.248;2023-06-14T09:33:49;5.20;;;2.28;;
43706;SDS011;61348;53.392;-6.248;2023-06-14T09:36:18;5.28;;;2.50;;
43706;SDS011;61348;53.392;-6.248;2023-06-14T09:39:01;6.78;;;2.42;;
43706;SDS011;61348;53.392;-6.248;2023-06-14T09:44:04;5.57;;;2.25;;
43706;SDS011;61348;53.392;-6.248;2023-06-14T09:46:37;5.30;;;2.90;;
43706;SDS011;61348;53.392;-6.248;2023-06-14T09:49:05;4.95;;;2.88;;
43706;SDS011;61348;53.392;-6.248;2023-06-14T09:51:32;6.50;;;2.50;;
43706;SDS011;61348;53.392;-6.248;2023-06-14T09:54:02;4.80;;;2.17;;
43706;SDS011;61348;53.392;-6.248;2023-06-14T09:56:37;5.22;;;2.65;;
43706;SDS011;61348;53.392;-6.248;2023-06-14T09:59:12;2.83;;;1.85;;
43706;SDS011;61348;53.392;-6.248;2023-06-14T10:01:43;7.18;;;2.17;;
43706;SDS011;61348;53.392;-6.248;2023-06-14T10:04:10;6.15;;;2.40;;
43706;SDS011;61348;53.392;-6.248;2023-06-14T10:06:40;4.35;;;2.33;;
43706;SDS011;61348;53.392;-6.248;2023-06-14T10:09:12;4.07;;;2.47;;
43706;SDS011;61348;53.392;-6.248;2023-06-14T10:11:39;7.00;;;2.65;;
43706;SDS011;61348;53.392;-6.248;2023-06-14T10:14:11;4.40;;;3.05;;
43706;SDS011;61348;53.392;-6.248;2023-06-14T10:19:42;4.68;;;2.00;;
43706;SDS011;61348;53.392;-6.248;2023-06-14T10:22:18;4.65;;;2.50;;
43706;SDS011;61348;53.392;-6.248;2023-06-14T10:24:51;5.75;;;2.45;;
43706;SDS011;61348;53.392;-6.248;2023-06-14T10:27:18;5.15;;;2.78;;
43706;SDS011;61348;53.392;-6.248;2023-06-14T10:32:23;4.60;;;2.55;;
43706;SDS011;61348;53.392;-6.248;2023-06-14T10:34:55;8.43;;;2.55;;
43706;SDS011;61348;53.392;-6.248;2023-06-14T10:37:23;7.07;;;2.80;;
43706;SDS011;61348;53.392;-6.248;2023-06-14T10:39:53;4.80;;;2.33;;
43706;SDS011;61348;53.392;-6.248;2023-06-14T10:42:20;6.80;;;2.80;;
43706;SDS011;61348;53.392;-6.248;2023-06-14T10:44:49;8.18;;;2.92;;
43706;SDS011;61348;53.392;-6.248;2023-06-14T10:49:56;5.30;;;2.42;;
43706;SDS011;61348;53.392;-6.248;2023-06-14T10:52:24;9.60;;;2.78;;
43706;SDS011;61348;53.392;-6.248;2023-06-14T10:55:13;5.75;;;3.10;;
43706;SDS011;61348;53.392;-6.248;2023-06-14T10:57:50;8.45;;;3.58;;
43706;SDS011;61348;53.392;-6.248;2023-06-14T11:00:21;11.48;;;4.95;;
43706;SDS011;61348;53.392;-6.248;2023-06-14T11:05:49;9.68;;;3.05;;
43706;SDS011;61348;53.392;-6.248;2023-06-14T11:11:29;8.32;;;4.55;;
43706;SDS011;61348;53.392;-6.248;2023-06-14T11:13:59;4.07;;;3.42;;
43706;SDS011;61348;53.392;-6.248;2023-06-14T11:16:28;7.88;;;3.70;;
43706;SDS011;61348;53.392;-6.248;2023-06-14T11:18:55;10.52;;;3.97;;
43706;SDS011;61348;53.392;-6.248;2023-06-14T11:21:22;7.90;;;4.22;;
43706;SDS011;61348;53.392;-6.248;2023-06-14T11:23:51;8.23;;;3.90;;
43706;SDS011;61348;53.392;-6.248;2023-06-14T11:26:27;13.38;;;5.13;;
43706;SDS011;61348;53.392;-6.248;2023-06-14T11:29:00;6.75;;;4.10;;
43706;SDS011;61348;53.392;-6.248;2023-06-14T11:31:28;6.43;;;4.30;;
43706;SDS011;61348;53.392;-6.248;2023-06-14T11:33:57;12.52;;;4.22;;
43706;SDS011;61348;53.392;-6.248;2023-06-14T11:36:28;6.53;;;3.67;;
43706;SDS011;61348;53.392;-6.248;2023-06-14T11:38:57;9.70;;;4.28;;
43706;SDS011;61348;53.392;-6.248;2023-06-14T11:41:26;5.95;;;3.20;;
43706;SDS011;61348;53.392;-6.248;2023-06-14T11:44:00;9.15;;;3.67;;
43706;SDS011;61348;53.392;-6.248;2023-06-14T11:46:28;12.52;;;4.38;;
43706;SDS011;61348;53.392;-6.248;2023-06-14T11:48:54;7.25;;;3.47;;
43706;SDS011;61348;53.392;-6.248;2023-06-14T11:51:21;9.73;;;3.72;;
43706;SDS011;61348;53.392;-6.248;2023-06-14T11:53:48;7.03;;;3.13;;
43706;SDS011;61348;53.392;-6.248;2023-06-14T11:56:15;6.65;;;3.10;;
43706;SDS011;61348;53.392;-6.248;2023-06-14T11:58:43;6.50;;;3.60;;
43706;SDS011;61348;53.392;-6.248;2023-06-14T12:01:14;9.68;;;4.03;;
43706;SDS011;61348;53.392;-6.248;2023-06-14T12:03:49;9.15;;;3.65;;
43706;SDS011;61348;53.392;-6.248;2023-06-14T12:06:17;7.55;;;3.00;;
43706;SDS011;61348;53.392;-6.248;2023-06-14T12:08:57;9.95;;;4.05;;
43706;SDS011;61348;53.392;-6.248;2023-06-14T12:11:24;5.78;;;2.67;;
43706;SDS011;61348;53.392;-6.248;2023-06-14T12:13:59;7.88;;;2.80;;
43706;SDS011;61348;53.392;-6.248;2023-06-14T12:16:31;8.00;;;3.17;;
43706;SDS011;61348;53.392;-6.248;2023-06-14T12:19:00;6.65;;;2.55;;
43706;SDS011;61348;53.392;-6.248;2023-06-14T12:21:39;5.05;;;2.50;;
43706;SDS011;61348;53.392;-6.248;2023-06-14T12:24:09;7.00;;;3.03;;
43706;SDS011;61348;53.392;-6.248;2023-06-14T12:26:39;4.30;;;2.75;;
43706;SDS011;61348;53.392;-6.248;2023-06-14T12:29:09;5.65;;;2.55;;
43706;SDS011;61348;53.392;-6.248;2023-06-14T12:31:39;9.25;;;3.00;;
43706;SDS011;61348;53.392;-6.248;2023-06-14T12:34:06;8.55;;;3.25;;
43706;SDS011;61348;53.392;-6.248;2023-06-14T12:36:33;5.63;;;2.53;;
43706;SDS011;61348;53.392;-6.248;2023-06-14T12:39:02;4.78;;;2.08;;
43706;SDS011;61348;53.392;-6.248;2023-06-14T12:41:29;11.52;;;3.35;;
43706;SDS011;61348;53.392;-6.248;2023-06-14T12:43:55;7.63;;;3.60;;
43706;SDS011;61348;53.392;-6.248;2023-06-14T12:46:24;3.58;;;2.38;;
43706;SDS011;61348;53.392;-6.248;2023-06-14T12:48:51;5.35;;;2.47;;
43706;SDS011;61348;53.392;-6.248;2023-06-14T12:51:18;6.78;;;3.10;;
43706;SDS011;61348;53.392;-6.248;2023-06-14T12:53:44;7.80;;;2.50;;
43706;SDS011;61348;53.392;-6.248;2023-06-14T12:56:11;14.10;;;2.83;;
43706;SDS011;61348;53.392;-6.248;2023-06-14T12:58:38;5.10;;;2.58;;
43706;SDS011;61348;53.392;-6.248;2023-06-14T13:01:05;9.73;;;3.33;;
43706;SDS011;61348;53.392;-6.248;2023-06-14T13:03:32;8.38;;;3.63;;
43706;SDS011;61348;53.392;-6.248;2023-06-14T13:06:01;5.22;;;2.70;;
43706;SDS011;61348;53.392;-6.248;2023-06-14T13:08:29;8.65;;;3.63;;
43706;SDS011;61348;53.392;-6.248;2023-06-14T13:10:58;10.20;;;2.90;;
43706;SDS011;61348;53.392;-6.248;2023-06-14T13:13:24;11.48;;;2.78;;
43706;SDS011;61348;53.392;-6.248;2023-06-14T13:15:51;7.55;;;2.25;;
43706;SDS011;61348;53.392;-6.248;2023-06-14T13:18:18;7.05;;;2.60;;
43706;SDS011;61348;53.392;-6.248;2023-06-14T13:20:45;8.23;;;2.28;;
43706;SDS011;61348;53.392;-6.248;2023-06-14T13:23:13;10.93;;;3.67;;
43706;SDS011;61348;53.392;-6.248;2023-06-14T13:25:40;5.38;;;2.65;;
43706;SDS011;61348;53.392;-6.248;2023-06-14T13:28:08;7.78;;;2.50;;
43706;SDS011;61348;53.392;-6.248;2023-06-14T13:30:35;8.10;;;2.63;;
43706;SDS011;61348;53.392;-6.248;2023-06-14T13:33:02;4.50;;;2.55;;
43706;SDS011;61348;53.392;-6.248;2023-06-14T13:35:29;7.22;;;2.60;;
43706;SDS011;61348;53.392;-6.248;2023-06-14T13:37:56;8.00;;;3.03;;
43706;SDS011;61348;53.392;-6.248;2023-06-14T13:40:22;6.78;;;2.65;;
43706;SDS011;61348;53.392;-6.248;2023-06-14T13:42:49;8.00;;;2.70;;
43706;SDS011;61348;53.392;-6.248;2023-06-14T13:45:16;7.78;;;3.08;;
43706;SDS011;61348;53.392;-6.248;2023-06-14T13:47:43;8.90;;;3.15;;
43706;SDS011;61348;53.392;-6.248;2023-06-14T13:50:10;7.22;;;2.90;;
43706;SDS011;61348;53.392;-6.248;2023-06-14T13:52:37;7.90;;;2.28;;
43706;SDS011;61348;53.392;-6.248;2023-06-14T13:55:04;3.97;;;3.10;;
43706;SDS011;61348;53.392;-6.248;2023-06-14T13:57:31;6.97;;;3.20;;
43706;SDS011;61348;53.392;-6.248;2023-06-14T13:59:59;7.57;;;2.80;;
43706;SDS011;61348;53.392;-6.248;2023-06-14T14:02:28;6.80;;;2.10;;
43706;SDS011;61348;53.392;-6.248;2023-06-14T14:04:55;9.10;;;3.05;;
43706;SDS011;61348;53.392;-6.248;2023-06-14T14:07:23;4.07;;;2.00;;
43706;SDS011;61348;53.392;-6.248;2023-06-14T14:09:50;5.10;;;2.80;;
43706;SDS011;61348;53.392;-6.248;2023-06-14T14:12:17;9.82;;;3.00;;
43706;SDS011;61348;53.392;-6.248;2023-06-14T14:14:44;4.60;;;2.80;;
43706;SDS011;61348;53.392;-6.248;2023-06-14T14:17:12;10.25;;;4.47;;
43706;SDS011;61348;53.392;-6.248;2023-06-14T14:19:39;12.10;;;3.83;;
43706;SDS011;61348;53.392;-6.248;2023-06-14T14:22:06;9.15;;;3.50;;
43706;SDS011;61348;53.392;-6.248;2023-06-14T14:24:34;7.47;;;3.22;;
43706;SDS011;61348;53.392;-6.248;2023-06-14T14:27:01;7.90;;;3.10;;
43706;SDS011;61348;53.392;-6.248;2023-06-14T14:29:28;6.15;;;2.65;;
43706;SDS011;61348;53.392;-6.248;2023-06-14T14:31:55;6.57;;;3.42;;
43706;SDS011;61348;53.392;-6.248;2023-06-14T14:34:24;8.98;;;3.33;;
43706;SDS011;61348;53.392;-6.248;2023-06-14T14:36:51;7.38;;;3.33;;
43706;SDS011;61348;53.392;-6.248;2023-06-14T14:39:18;18.33;;;5.57;;
43706;SDS011;61348;53.392;-6.248;2023-06-14T14:41:45;5.68;;;2.78;;
43706;SDS011;61348;53.392;-6.248;2023-06-14T14:44:12;6.03;;;3.40;;
43706;SDS011;61348;53.392;-6.248;2023-06-14T14:46:40;6.47;;;4.25;;
43706;SDS011;61348;53.392;-6.248;2023-06-14T14:49:07;8.70;;;3.38;;
43706;SDS011;61348;53.392;-6.248;2023-06-14T14:51:34;9.05;;;3.95;;
43706;SDS011;61348;53.392;-6.248;2023-06-14T14:54:01;7.30;;;3.38;;
43706;SDS011;61348;53.392;-6.248;2023-06-14T14:56:27;8.73;;;4.53;;
43706;SDS011;61348;53.392;-6.248;2023-06-14T14:58:54;5.88;;;3.30;;
43706;SDS011;61348;53.392;-6.248;2023-06-14T15:01:21;8.65;;;3.50;;
43706;SDS011;61348;53.392;-6.248;2023-06-14T15:03:48;6.18;;;2.95;;